sensor_id;sensor_type;location;lat;lon;timestamp;temperature;humidity
22098;DHT22;11215;51.938;8.464;2023-08-24T00:00:38;22.50;58.90
22098;DHT22;11215;51.938;8.464;2023-08-24T00:03:03;22.50;59.10
22098;DHT22;11215;51.938;8.464;2023-08-24T00:05:32;22.50;59.10
22098;DHT22;11215;51.938;8.464;2023-08-24T00:07:58;22.50;59.20
22098;DHT22;11215;51.938;8.464;2023-08-24T00:10:23;22.50;59.20
22098;DHT22;11215;51.938;8.464;2023-08-24T00:12:49;22.50;59.20
22098;DHT22;11215;51.938;8.464;2023-08-24T00:15:15;22.60;59.20
22098;DHT22;11215;51.938;8.464;2023-08-24T00:17:40;22.60;59.20
22098;DHT22;11215;51.938;8.464;2023-08-24T00:20:07;22.50;59.20
22098;DHT22;11215;51.938;8.464;2023-08-24T00:22:36;22.50;59.20
22098;DHT22;11215;51.938;8.464;2023-08-24T00:28:25;22.60;59.70
22098;DHT22;11215;51.938;8.464;2023-08-24T00:30:51;22.60;59.20
22098;DHT22;11215;51.938;8.464;2023-08-24T00:33:17;22.60;59.10
22098;DHT22;11215;51.938;8.464;2023-08-24T00:35:43;22.50;59.10
22098;DHT22;11215;51.938;8.464;2023-08-24T00:38:08;22.50;59.10
22098;DHT22;11215;51.938;8.464;2023-08-24T00:40:34;22.50;59.10
22098;DHT22;11215;51.938;8.464;2023-08-24T00:43:00;22.50;59.20
22098;DHT22;11215;51.938;8.464;2023-08-24T00:45:26;22.50;59.20
22098;DHT22;11215;51.938;8.464;2023-08-24T00:47:52;22.50;59.30
22098;DHT22;11215;51.938;8.464;2023-08-24T00:50:18;22.40;59.30
22098;DHT22;11215;51.938;8.464;2023-08-24T00:52:45;22.50;59.40
22098;DHT22;11215;51.938;8.464;2023-08-24T00:55:13;22.40;59.40
22098;DHT22;11215;51.938;8.464;2023-08-24T00:57:40;22.40;59.40
22098;DHT22;11215;51.938;8.464;2023-08-24T01:00:07;22.40;59.40
22098;DHT22;11215;51.938;8.464;2023-08-24T01:02:37;22.40;59.40
22098;DHT22;11215;51.938;8.464;2023-08-24T01:05:03;22.30;59.40
22098;DHT22;11215;51.938;8.464;2023-08-24T01:07:37;22.30;59.40
22098;DHT22;11215;51.938;8.464;2023-08-24T01:10:05;22.40;59.60
22098;DHT22;11215;51.938;8.464;2023-08-24T01:16:00;22.30;59.90
22098;DHT22;11215;51.938;8.464;2023-08-24T01:18:30;22.30;59.50
22098;DHT22;11215;51.938;8.464;2023-08-24T01:20:56;22.30;59.50
22098;DHT22;11215;51.938;8.464;2023-08-24T01:23:45;22.20;59.40
22098;DHT22;11215;51.938;8.464;2023-08-24T01:26:17;22.20;59.90
22098;DHT22;11215;51.938;8.464;2023-08-24T01:28:44;22.20;59.70
22098;DHT22;11215;51.938;8.464;2023-08-24T01:31:10;22.10;59.60
22098;DHT22;11215;51.938;8.464;2023-08-24T01:33:36;22.10;59.70
22098;DHT22;11215;51.938;8.464;2023-08-24T01:36:02;22.10;59.70
22098;DHT22;11215;51.938;8.464;2023-08-24T01:38:28;22.10;59.80
22098;DHT22;11215;51.938;8.464;2023-08-24T01:43:33;22.00;59.90
22098;DHT22;11215;51.938;8.464;2023-08-24T01:46:04;22.00;59.80
22098;DHT22;11215;51.938;8.464;2023-08-24T01:48:30;22.00;60.00
22098;DHT22;11215;51.938;8.464;2023-08-24T01:51:00;21.90;59.90
22098;DHT22;11215;51.938;8.464;2023-08-24T01:53:29;21.90;60.20
22098;DHT22;11215;51.938;8.464;2023-08-24T01:55:55;21.90;60.10
22098;DHT22;11215;51.938;8.464;2023-08-24T01:58:20;21.90;60.10
22098;DHT22;11215;51.938;8.464;2023-08-24T02:00:46;21.90;60.10
22098;DHT22;11215;51.938;8.464;2023-08-24T02:03:12;21.90;60.20
22098;DHT22;11215;51.938;8.464;2023-08-24T02:05:37;21.90;60.10
22098;DHT22;11215;51.938;8.464;2023-08-24T02:08:03;21.90;60.10
22098;DHT22;11215;51.938;8.464;2023-08-24T02:10:29;21.80;60.10
22098;DHT22;11215;51.938;8.464;2023-08-24T02:12:55;21.80;60.10
22098;DHT22;11215;51.938;8.464;2023-08-24T02:15:20;21.80;60.10
22098;DHT22;11215;51.938;8.464;2023-08-24T02:17:46;21.80;60.00
22098;DHT22;11215;51.938;8.464;2023-08-24T02:20:12;21.80;60.20
22098;DHT22;11215;51.938;8.464;2023-08-24T02:22:38;21.70;60.20
22098;DHT22;11215;51.938;8.464;2023-08-24T02:25:05;21.70;60.50
22098;DHT22;11215;51.938;8.464;2023-08-24T02:27:34;21.60;60.50
22098;DHT22;11215;51.938;8.464;2023-08-24T02:29:59;21.60;60.70
22098;DHT22;11215;51.938;8.464;2023-08-24T02:32:25;21.60;60.60
22098;DHT22;11215;51.938;8.464;2023-08-24T02:34:51;21.60;60.60
22098;DHT22;11215;51.938;8.464;2023-08-24T02:37:17;21.50;60.70
22098;DHT22;11215;51.938;8.464;2023-08-24T02:39:42;21.50;60.70
22098;DHT22;11215;51.938;8.464;2023-08-24T02:42:08;21.40;60.90
22098;DHT22;11215;51.938;8.464;2023-08-24T02:44:34;21.40;61.00
22098;DHT22;11215;51.938;8.464;2023-08-24T02:47:00;21.40;61.00
22098;DHT22;11215;51.938;8.464;2023-08-24T02:49:25;21.40;61.00
22098;DHT22;11215;51.938;8.464;2023-08-24T02:51:51;21.40;61.00
22098;DHT22;11215;51.938;8.464;2023-08-24T02:54:17;21.40;61.00
22098;DHT22;11215;51.938;8.464;2023-08-24T02:56:43;21.40;61.00
22098;DHT22;11215;51.938;8.464;2023-08-24T02:59:08;21.50;60.90
22098;DHT22;11215;51.938;8.464;2023-08-24T03:01:34;21.50;60.90
22098;DHT22;11215;51.938;8.464;2023-08-24T03:04:06;21.40;60.90
22098;DHT22;11215;51.938;8.464;2023-08-24T03:06:31;21.40;61.10
22098;DHT22;11215;51.938;8.464;2023-08-24T03:08:57;21.40;61.10
22098;DHT22;11215;51.938;8.464;2023-08-24T03:11:23;21.30;61.10
22098;DHT22;11215;51.938;8.464;2023-08-24T03:13:48;21.30;61.20
22098;DHT22;11215;51.938;8.464;2023-08-24T03:16:14;21.30;61.20
22098;DHT22;11215;51.938;8.464;2023-08-24T03:18:40;21.30;61.20
22098;DHT22;11215;51.938;8.464;2023-08-24T03:21:05;21.30;61.40
22098;DHT22;11215;51.938;8.464;2023-08-24T03:23:31;21.20;61.30
22098;DHT22;11215;51.938;8.464;2023-08-24T03:25:58;21.20;61.30
22098;DHT22;11215;51.938;8.464;2023-08-24T03:28:26;21.20;61.50
22098;DHT22;11215;51.938;8.464;2023-08-24T03:30:53;21.20;61.50
22098;DHT22;11215;51.938;8.464;2023-08-24T03:33:21;21.20;61.60
22098;DHT22;11215;51.938;8.464;2023-08-24T03:35:47;21.10;61.70
22098;DHT22;11215;51.938;8.464;2023-08-24T03:38:13;21.10;61.70
22098;DHT22;11215;51.938;8.464;2023-08-24T03:40:39;21.10;61.80
22098;DHT22;11215;51.938;8.464;2023-08-24T03:43:05;21.10;61.80
22098;DHT22;11215;51.938;8.464;2023-08-24T03:45:30;21.00;61.90
22098;DHT22;11215;51.938;8.464;2023-08-24T03:47:56;21.00;62.00
22098;DHT22;11215;51.938;8.464;2023-08-24T03:50:22;21.00;62.00
22098;DHT22;11215;51.938;8.464;2023-08-24T03:52:51;21.00;61.90
22098;DHT22;11215;51.938;8.464;2023-08-24T03:55:17;21.00;62.00
22098;DHT22;11215;51.938;8.464;2023-08-24T03:57:42;21.00;61.80
22098;DHT22;11215;51.938;8.464;2023-08-24T04:00:09;21.00;62.00
22098;DHT22;11215;51.938;8.464;2023-08-24T04:02:38;21.00;62.20
22098;DHT22;11215;51.938;8.464;2023-08-24T04:05:04;21.00;62.10
22098;DHT22;11215;51.938;8.464;2023-08-24T04:07:30;20.90;62.20
22098;DHT22;11215;51.938;8.464;2023-08-24T04:09:56;20.90;62.30
22098;DHT22;11215;51.938;8.464;2023-08-24T04:12:22;20.90;62.40
22098;DHT22;11215;51.938;8.464;2023-08-24T04:14:48;20.90;62.60
22098;DHT22;11215;51.938;8.464;2023-08-24T04:17:14;20.90;62.60
22098;DHT22;11215;51.938;8.464;2023-08-24T04:19:40;20.90;62.60
22098;DHT22;11215;51.938;8.464;2023-08-24T04:22:05;20.90;62.70
22098;DHT22;11215;51.938;8.464;2023-08-24T04:24:31;20.90;62.80
22098;DHT22;11215;51.938;8.464;2023-08-24T04:26:56;20.90;62.90
22098;DHT22;11215;51.938;8.464;2023-08-24T04:29:22;20.90;62.90
22098;DHT22;11215;51.938;8.464;2023-08-24T04:31:48;20.90;63.00
22098;DHT22;11215;51.938;8.464;2023-08-24T04:34:13;20.90;63.10
22098;DHT22;11215;51.938;8.464;2023-08-24T04:36:39;20.90;63.20
22098;DHT22;11215;51.938;8.464;2023-08-24T04:39:05;20.90;63.20
22098;DHT22;11215;51.938;8.464;2023-08-24T04:41:31;20.90;63.30
22098;DHT22;11215;51.938;8.464;2023-08-24T04:43:56;20.90;63.30
22098;DHT22;11215;51.938;8.464;2023-08-24T04:46:22;20.80;63.30
22098;DHT22;11215;51.938;8.464;2023-08-24T04:48:48;20.80;63.50
22098;DHT22;11215;51.938;8.464;2023-08-24T04:51:13;20.80;63.60
22098;DHT22;11215;51.938;8.464;2023-08-24T04:53:39;20.80;63.80
22098;DHT22;11215;51.938;8.464;2023-08-24T04:56:04;20.80;64.00
22098;DHT22;11215;51.938;8.464;2023-08-24T04:58:32;20.80;64.10
22098;DHT22;11215;51.938;8.464;2023-08-24T05:00:58;20.80;64.10
22098;DHT22;11215;51.938;8.464;2023-08-24T05:03:23;20.80;64.20
22098;DHT22;11215;51.938;8.464;2023-08-24T05:05:49;20.80;64.30
22098;DHT22;11215;51.938;8.464;2023-08-24T05:08:14;20.80;64.40
22098;DHT22;11215;51.938;8.464;2023-08-24T05:10:40;20.80;64.50
22098;DHT22;11215;51.938;8.464;2023-08-24T05:13:06;20.80;64.70
22098;DHT22;11215;51.938;8.464;2023-08-24T05:15:32;20.80;64.70
22098;DHT22;11215;51.938;8.464;2023-08-24T05:17:57;20.80;64.80
22098;DHT22;11215;51.938;8.464;2023-08-24T05:20:25;20.80;65.00
22098;DHT22;11215;51.938;8.464;2023-08-24T05:22:51;20.80;65.10
22098;DHT22;11215;51.938;8.464;2023-08-24T05:25:17;20.80;65.20
22098;DHT22;11215;51.938;8.464;2023-08-24T05:27:43;20.90;65.50
22098;DHT22;11215;51.938;8.464;2023-08-24T05:30:09;20.90;65.50
22098;DHT22;11215;51.938;8.464;2023-08-24T05:32:41;20.90;66.20
22098;DHT22;11215;51.938;8.464;2023-08-24T05:35:07;21.00;66.60
22098;DHT22;11215;51.938;8.464;2023-08-24T05:37:34;21.00;66.10
22098;DHT22;11215;51.938;8.464;2023-08-24T05:40:00;21.10;66.40
22098;DHT22;11215;51.938;8.464;2023-08-24T05:42:26;21.10;66.30
22098;DHT22;11215;51.938;8.464;2023-08-24T05:44:52;21.10;65.60
22098;DHT22;11215;51.938;8.464;2023-08-24T05:47:18;21.20;65.00
22098;DHT22;11215;51.938;8.464;2023-08-24T05:49:44;21.30;64.70
22098;DHT22;11215;51.938;8.464;2023-08-24T05:52:09;21.30;65.10
22098;DHT22;11215;51.938;8.464;2023-08-24T05:54:38;21.40;66.40
22098;DHT22;11215;51.938;8.464;2023-08-24T05:57:04;21.40;65.60
22098;DHT22;11215;51.938;8.464;2023-08-24T05:59:31;21.50;65.50
22098;DHT22;11215;51.938;8.464;2023-08-24T06:01:57;21.50;65.60
22098;DHT22;11215;51.938;8.464;2023-08-24T06:04:23;21.50;65.50
22098;DHT22;11215;51.938;8.464;2023-08-24T06:06:49;21.60;65.10
22098;DHT22;11215;51.938;8.464;2023-08-24T06:09:14;21.60;65.10
22098;DHT22;11215;51.938;8.464;2023-08-24T06:11:42;21.60;65.30
22098;DHT22;11215;51.938;8.464;2023-08-24T06:14:08;21.70;65.20
22098;DHT22;11215;51.938;8.464;2023-08-24T06:16:34;21.70;64.90
22098;DHT22;11215;51.938;8.464;2023-08-24T06:18:59;21.70;65.00
22098;DHT22;11215;51.938;8.464;2023-08-24T06:21:25;21.80;64.90
22098;DHT22;11215;51.938;8.464;2023-08-24T06:23:51;21.80;64.80
22098;DHT22;11215;51.938;8.464;2023-08-24T06:26:17;21.80;64.90
22098;DHT22;11215;51.938;8.464;2023-08-24T06:28:43;21.80;64.70
22098;DHT22;11215;51.938;8.464;2023-08-24T06:31:09;21.80;64.70
22098;DHT22;11215;51.938;8.464;2023-08-24T06:33:35;21.90;65.00
22098;DHT22;11215;51.938;8.464;2023-08-24T06:36:02;21.90;65.20
22098;DHT22;11215;51.938;8.464;2023-08-24T06:38:30;21.90;65.30
22098;DHT22;11215;51.938;8.464;2023-08-24T06:40:57;21.90;65.30
22098;DHT22;11215;51.938;8.464;2023-08-24T06:43:23;21.90;65.40
22098;DHT22;11215;51.938;8.464;2023-08-24T06:49:12;21.90;66.40
22098;DHT22;11215;51.938;8.464;2023-08-24T06:51:38;21.90;65.50
22098;DHT22;11215;51.938;8.464;2023-08-24T06:54:03;21.90;65.80
22098;DHT22;11215;51.938;8.464;2023-08-24T06:56:29;22.00;65.90
22098;DHT22;11215;51.938;8.464;2023-08-24T06:58:54;22.00;65.80
22098;DHT22;11215;51.938;8.464;2023-08-24T07:01:20;22.00;65.60
22098;DHT22;11215;51.938;8.464;2023-08-24T07:03:46;22.10;65.80
22098;DHT22;11215;51.938;8.464;2023-08-24T07:06:11;22.10;65.60
22098;DHT22;11215;51.938;8.464;2023-08-24T07:08:37;22.10;65.80
22098;DHT22;11215;51.938;8.464;2023-08-24T07:11:03;22.20;65.90
22098;DHT22;11215;51.938;8.464;2023-08-24T07:13:29;22.20;65.80
22098;DHT22;11215;51.938;8.464;2023-08-24T07:15:54;22.20;65.50
22098;DHT22;11215;51.938;8.464;2023-08-24T07:18:23;22.30;65.50
22098;DHT22;11215;51.938;8.464;2023-08-24T07:20:48;22.30;65.50
22098;DHT22;11215;51.938;8.464;2023-08-24T07:23:14;22.30;65.60
22098;DHT22;11215;51.938;8.464;2023-08-24T07:25:40;22.30;65.50
22098;DHT22;11215;51.938;8.464;2023-08-24T07:28:06;22.40;65.10
22098;DHT22;11215;51.938;8.464;2023-08-24T07:30:33;22.40;64.80
22098;DHT22;11215;51.938;8.464;2023-08-24T07:33:01;22.50;64.70
22098;DHT22;11215;51.938;8.464;2023-08-24T07:35:28;22.50;64.70
22098;DHT22;11215;51.938;8.464;2023-08-24T07:37:54;22.50;65.10
22098;DHT22;11215;51.938;8.464;2023-08-24T07:40:19;22.50;64.70
22098;DHT22;11215;51.938;8.464;2023-08-24T07:42:49;22.50;64.20
22098;DHT22;11215;51.938;8.464;2023-08-24T07:45:16;22.60;64.30
22098;DHT22;11215;51.938;8.464;2023-08-24T07:47:43;22.60;64.10
22098;DHT22;11215;51.938;8.464;2023-08-24T07:50:09;22.60;65.40
22098;DHT22;11215;51.938;8.464;2023-08-24T07:52:37;22.70;64.50
22098;DHT22;11215;51.938;8.464;2023-08-24T07:55:03;22.70;64.20
22098;DHT22;11215;51.938;8.464;2023-08-24T07:57:30;22.70;64.00
22098;DHT22;11215;51.938;8.464;2023-08-24T07:59:57;22.70;64.30
22098;DHT22;11215;51.938;8.464;2023-08-24T08:02:23;22.80;64.70
22098;DHT22;11215;51.938;8.464;2023-08-24T08:04:48;22.80;64.50
22098;DHT22;11215;51.938;8.464;2023-08-24T08:07:14;22.80;64.80
22098;DHT22;11215;51.938;8.464;2023-08-24T08:09:40;22.80;64.90
22098;DHT22;11215;51.938;8.464;2023-08-24T08:12:06;22.90;65.00
22098;DHT22;11215;51.938;8.464;2023-08-24T08:14:31;22.90;65.30
22098;DHT22;11215;51.938;8.464;2023-08-24T08:16:57;22.90;65.00
22098;DHT22;11215;51.938;8.464;2023-08-24T08:19:23;23.00;64.50
22098;DHT22;11215;51.938;8.464;2023-08-24T08:21:50;23.00;64.00
22098;DHT22;11215;51.938;8.464;2023-08-24T08:24:16;23.00;63.80
22098;DHT22;11215;51.938;8.464;2023-08-24T08:26:42;23.10;63.70
22098;DHT22;11215;51.938;8.464;2023-08-24T08:29:08;23.10;63.50
22098;DHT22;11215;51.938;8.464;2023-08-24T08:31:33;23.10;64.30
22098;DHT22;11215;51.938;8.464;2023-08-24T08:33:59;23.20;63.40
22098;DHT22;11215;51.938;8.464;2023-08-24T08:36:24;23.20;63.30
22098;DHT22;11215;51.938;8.464;2023-08-24T08:38:50;23.20;63.30
22098;DHT22;11215;51.938;8.464;2023-08-24T08:41:18;23.20;63.40
22098;DHT22;11215;51.938;8.464;2023-08-24T08:43:47;23.30;63.40
22098;DHT22;11215;51.938;8.464;2023-08-24T08:46:14;23.30;63.70
22098;DHT22;11215;51.938;8.464;2023-08-24T08:48:41;23.30;63.60
22098;DHT22;11215;51.938;8.464;2023-08-24T08:51:08;23.30;63.50
22098;DHT22;11215;51.938;8.464;2023-08-24T08:53:34;23.40;63.80
22098;DHT22;11215;51.938;8.464;2023-08-24T08:56:03;23.40;63.80
22098;DHT22;11215;51.938;8.464;2023-08-24T08:58:31;23.40;64.10
22098;DHT22;11215;51.938;8.464;2023-08-24T09:00:57;23.40;64.00
22098;DHT22;11215;51.938;8.464;2023-08-24T09:03:26;23.40;64.00
22098;DHT22;11215;51.938;8.464;2023-08-24T09:05:53;23.50;64.10
22098;DHT22;11215;51.938;8.464;2023-08-24T09:08:20;23.50;64.00
22098;DHT22;11215;51.938;8.464;2023-08-24T09:10:46;23.60;64.50
22098;DHT22;11215;51.938;8.464;2023-08-24T09:13:13;23.60;64.40
22098;DHT22;11215;51.938;8.464;2023-08-24T09:15:38;23.60;64.40
22098;DHT22;11215;51.938;8.464;2023-08-24T09:18:04;23.70;64.40
22098;DHT22;11215;51.938;8.464;2023-08-24T09:20:30;23.70;64.60
22098;DHT22;11215;51.938;8.464;2023-08-24T09:22:57;23.70;64.60
22098;DHT22;11215;51.938;8.464;2023-08-24T09:25:23;23.70;64.70
22098;DHT22;11215;51.938;8.464;2023-08-24T09:27:59;23.80;64.60
22098;DHT22;11215;51.938;8.464;2023-08-24T09:30:34;23.80;65.20
22098;DHT22;11215;51.938;8.464;2023-08-24T09:33:04;23.80;65.00
22098;DHT22;11215;51.938;8.464;2023-08-24T09:35:36;23.90;65.00
22098;DHT22;11215;51.938;8.464;2023-08-24T09:38:19;23.90;64.90
22098;DHT22;11215;51.938;8.464;2023-08-24T09:40:45;23.90;65.10
22098;DHT22;11215;51.938;8.464;2023-08-24T09:43:13;24.00;64.70
22098;DHT22;11215;51.938;8.464;2023-08-24T09:48:14;24.00;65.00
22098;DHT22;11215;51.938;8.464;2023-08-24T09:50:41;24.00;64.20
22098;DHT22;11215;51.938;8.464;2023-08-24T09:53:08;24.10;64.00
22098;DHT22;11215;51.938;8.464;2023-08-24T09:55:39;24.20;64.20
22098;DHT22;11215;51.938;8.464;2023-08-24T09:58:07;24.20;63.50
22098;DHT22;11215;51.938;8.464;2023-08-24T10:00:35;24.30;63.80
22098;DHT22;11215;51.938;8.464;2023-08-24T10:03:03;24.30;63.90
22098;DHT22;11215;51.938;8.464;2023-08-24T10:05:31;24.40;63.70
22098;DHT22;11215;51.938;8.464;2023-08-24T10:07:58;24.40;63.70
22098;DHT22;11215;51.938;8.464;2023-08-24T10:10:25;24.50;63.20
22098;DHT22;11215;51.938;8.464;2023-08-24T10:12:56;24.50;62.80
22098;DHT22;11215;51.938;8.464;2023-08-24T10:15:24;24.60;62.90
22098;DHT22;11215;51.938;8.464;2023-08-24T10:17:52;24.70;63.00
22098;DHT22;11215;51.938;8.464;2023-08-24T10:20:19;24.80;62.90
22098;DHT22;11215;51.938;8.464;2023-08-24T10:22:46;24.90;62.80
22098;DHT22;11215;51.938;8.464;2023-08-24T10:25:13;25.00;62.00
22098;DHT22;11215;51.938;8.464;2023-08-24T10:27:42;25.00;62.20
22098;DHT22;11215;51.938;8.464;2023-08-24T10:30:13;25.10;62.90
22098;DHT22;11215;51.938;8.464;2023-08-24T10:32:40;25.10;62.20
22098;DHT22;11215;51.938;8.464;2023-08-24T10:35:06;25.20;61.30
22098;DHT22;11215;51.938;8.464;2023-08-24T10:37:32;25.30;61.90
22098;DHT22;11215;51.938;8.464;2023-08-24T10:39:59;25.40;62.30
22098;DHT22;11215;51.938;8.464;2023-08-24T10:42:26;25.40;62.20
22098;DHT22;11215;51.938;8.464;2023-08-24T10:44:52;25.50;62.10
22098;DHT22;11215;51.938;8.464;2023-08-24T10:47:19;25.50;61.70
22098;DHT22;11215;51.938;8.464;2023-08-24T10:52:32;25.60;60.50
22098;DHT22;11215;51.938;8.464;2023-08-24T10:55:01;25.70;60.20
22098;DHT22;11215;51.938;8.464;2023-08-24T10:57:38;25.80;61.30
22098;DHT22;11215;51.938;8.464;2023-08-24T11:00:06;25.90;61.10
22098;DHT22;11215;51.938;8.464;2023-08-24T11:02:49;26.00;61.30
22098;DHT22;11215;51.938;8.464;2023-08-24T11:05:32;26.10;60.80
22098;DHT22;11215;51.938;8.464;2023-08-24T11:07:58;26.10;60.30
22098;DHT22;11215;51.938;8.464;2023-08-24T11:10:31;26.20;59.70
22098;DHT22;11215;51.938;8.464;2023-08-24T11:13:20;26.20;59.90
22098;DHT22;11215;51.938;8.464;2023-08-24T11:15:49;26.30;60.00
22098;DHT22;11215;51.938;8.464;2023-08-24T11:18:28;26.40;60.00
22098;DHT22;11215;51.938;8.464;2023-08-24T11:21:02;26.40;59.90
22098;DHT22;11215;51.938;8.464;2023-08-24T11:23:34;26.50;59.70
22098;DHT22;11215;51.938;8.464;2023-08-24T11:26:01;26.50;59.30
22098;DHT22;11215;51.938;8.464;2023-08-24T11:28:28;26.50;59.40
22098;DHT22;11215;51.938;8.464;2023-08-24T11:30:55;26.60;59.40
22098;DHT22;11215;51.938;8.464;2023-08-24T11:33:29;26.60;59.30
22098;DHT22;11215;51.938;8.464;2023-08-24T11:35:55;26.60;59.10
22098;DHT22;11215;51.938;8.464;2023-08-24T11:38:21;26.70;57.90
22098;DHT22;11215;51.938;8.464;2023-08-24T11:40:47;26.80;58.80
22098;DHT22;11215;51.938;8.464;2023-08-24T11:43:20;26.80;58.70
22098;DHT22;11215;51.938;8.464;2023-08-24T11:45:46;26.80;58.80
22098;DHT22;11215;51.938;8.464;2023-08-24T11:48:11;26.90;58.70
22098;DHT22;11215;51.938;8.464;2023-08-24T11:50:37;26.90;58.60
22098;DHT22;11215;51.938;8.464;2023-08-24T11:53:06;27.00;58.70
22098;DHT22;11215;51.938;8.464;2023-08-24T11:55:32;27.00;58.10
22098;DHT22;11215;51.938;8.464;2023-08-24T11:57:59;27.10;58.10
22098;DHT22;11215;51.938;8.464;2023-08-24T12:00:25;27.10;58.20
22098;DHT22;11215;51.938;8.464;2023-08-24T12:02:52;27.20;57.90
22098;DHT22;11215;51.938;8.464;2023-08-24T12:05:22;27.30;58.20
22098;DHT22;11215;51.938;8.464;2023-08-24T12:07:47;27.30;57.60
22098;DHT22;11215;51.938;8.464;2023-08-24T12:10:13;27.40;57.50
22098;DHT22;11215;51.938;8.464;2023-08-24T12:12:39;27.50;57.60
22098;DHT22;11215;51.938;8.464;2023-08-24T12:15:05;27.50;57.30
22098;DHT22;11215;51.938;8.464;2023-08-24T12:17:42;27.60;57.80
22098;DHT22;11215;51.938;8.464;2023-08-24T12:20:19;27.70;57.40
22098;DHT22;11215;51.938;8.464;2023-08-24T12:22:50;27.70;56.70
22098;DHT22;11215;51.938;8.464;2023-08-24T12:25:16;27.80;57.40
22098;DHT22;11215;51.938;8.464;2023-08-24T12:27:42;27.80;57.10
22098;DHT22;11215;51.938;8.464;2023-08-24T12:30:10;27.90;56.70
22098;DHT22;11215;51.938;8.464;2023-08-24T12:32:48;27.90;56.90
22098;DHT22;11215;51.938;8.464;2023-08-24T12:35:16;28.00;56.70
22098;DHT22;11215;51.938;8.464;2023-08-24T12:37:43;28.00;57.10
22098;DHT22;11215;51.938;8.464;2023-08-24T12:40:09;28.10;57.00
22098;DHT22;11215;51.938;8.464;2023-08-24T12:42:36;28.10;56.70
22098;DHT22;11215;51.938;8.464;2023-08-24T12:45:02;28.20;56.70
22098;DHT22;11215;51.938;8.464;2023-08-24T12:47:29;28.30;56.60
22098;DHT22;11215;51.938;8.464;2023-08-24T12:49:55;28.30;56.20
22098;DHT22;11215;51.938;8.464;2023-08-24T12:52:22;28.40;56.60
22098;DHT22;11215;51.938;8.464;2023-08-24T12:54:49;28.40;56.30
22098;DHT22;11215;51.938;8.464;2023-08-24T12:57:14;28.50;56.30
22098;DHT22;11215;51.938;8.464;2023-08-24T12:59:40;28.60;56.10
22098;DHT22;11215;51.938;8.464;2023-08-24T13:02:06;28.60;56.30
22098;DHT22;11215;51.938;8.464;2023-08-24T13:04:31;28.70;56.10
22098;DHT22;11215;51.938;8.464;2023-08-24T13:06:58;28.70;55.90
22098;DHT22;11215;51.938;8.464;2023-08-24T13:09:24;28.80;55.90
22098;DHT22;11215;51.938;8.464;2023-08-24T13:11:50;28.80;55.80
22098;DHT22;11215;51.938;8.464;2023-08-24T13:14:16;28.90;56.00
22098;DHT22;11215;51.938;8.464;2023-08-24T13:16:41;28.90;55.70
22098;DHT22;11215;51.938;8.464;2023-08-24T13:19:07;29.00;55.90
22098;DHT22;11215;51.938;8.464;2023-08-24T13:21:33;29.00;56.60
22098;DHT22;11215;51.938;8.464;2023-08-24T13:23:59;29.10;56.30
22098;DHT22;11215;51.938;8.464;2023-08-24T13:26:24;29.10;55.90
22098;DHT22;11215;51.938;8.464;2023-08-24T13:28:51;29.20;55.90
22098;DHT22;11215;51.938;8.464;2023-08-24T13:31:17;29.20;55.90
22098;DHT22;11215;51.938;8.464;2023-08-24T13:33:44;29.20;56.00
22098;DHT22;11215;51.938;8.464;2023-08-24T13:36:10;29.30;55.80
22098;DHT22;11215;51.938;8.464;2023-08-24T13:38:36;29.30;55.50
22098;DHT22;11215;51.938;8.464;2023-08-24T13:41:02;29.40;55.60
22098;DHT22;11215;51.938;8.464;2023-08-24T13:43:29;29.40;55.50
22098;DHT22;11215;51.938;8.464;2023-08-24T13:46:10;29.50;56.10
22098;DHT22;11215;51.938;8.464;2023-08-24T13:48:35;29.50;54.60
22098;DHT22;11215;51.938;8.464;2023-08-24T13:51:01;29.50;55.10
22098;DHT22;11215;51.938;8.464;2023-08-24T13:53:27;29.50;55.00
22098;DHT22;11215;51.938;8.464;2023-08-24T13:55:53;29.60;55.00
22098;DHT22;11215;51.938;8.464;2023-08-24T13:58:18;29.60;55.00
22098;DHT22;11215;51.938;8.464;2023-08-24T14:00:44;29.60;55.20
22098;DHT22;11215;51.938;8.464;2023-08-24T14:03:10;29.60;54.70
22098;DHT22;11215;51.938;8.464;2023-08-24T14:05:39;29.60;54.50
22098;DHT22;11215;51.938;8.464;2023-08-24T14:08:05;29.60;54.60
22098;DHT22;11215;51.938;8.464;2023-08-24T14:10:31;29.70;54.80
22098;DHT22;11215;51.938;8.464;2023-08-24T14:12:57;29.60;54.70
22098;DHT22;11215;51.938;8.464;2023-08-24T14:15:23;29.60;54.60
22098;DHT22;11215;51.938;8.464;2023-08-24T14:17:48;29.70;54.50
22098;DHT22;11215;51.938;8.464;2023-08-24T14:20:14;29.70;54.60
22098;DHT22;11215;51.938;8.464;2023-08-24T14:22:41;29.70;54.30
22098;DHT22;11215;51.938;8.464;2023-08-24T14:25:07;29.70;54.40
22098;DHT22;11215;51.938;8.464;2023-08-24T14:27:33;29.70;54.10
22098;DHT22;11215;51.938;8.464;2023-08-24T14:29:58;29.70;54.40
22098;DHT22;11215;51.938;8.464;2023-08-24T14:32:24;29.70;54.60
22098;DHT22;11215;51.938;8.464;2023-08-24T14:34:50;29.70;54.60
22098;DHT22;11215;51.938;8.464;2023-08-24T14:37:15;29.70;54.80
22098;DHT22;11215;51.938;8.464;2023-08-24T14:39:41;29.70;54.70
22098;DHT22;11215;51.938;8.464;2023-08-24T14:42:07;29.70;54.90
22098;DHT22;11215;51.938;8.464;2023-08-24T14:44:36;29.70;55.30
22098;DHT22;11215;51.938;8.464;2023-08-24T14:47:04;29.70;54.90
22098;DHT22;11215;51.938;8.464;2023-08-24T14:49:30;29.70;54.70
22098;DHT22;11215;51.938;8.464;2023-08-24T14:51:56;29.70;54.70
22098;DHT22;11215;51.938;8.464;2023-08-24T14:54:22;29.70;54.70
22098;DHT22;11215;51.938;8.464;2023-08-24T14:56:47;29.70;54.70
22098;DHT22;11215;51.938;8.464;2023-08-24T14:59:13;29.60;55.30
22098;DHT22;11215;51.938;8.464;2023-08-24T15:01:39;29.60;55.40
22098;DHT22;11215;51.938;8.464;2023-08-24T15:04:04;29.50;55.70
22098;DHT22;11215;51.938;8.464;2023-08-24T15:06:30;29.50;56.30
22098;DHT22;11215;51.938;8.464;2023-08-24T15:08:56;29.50;56.90
22098;DHT22;11215;51.938;8.464;2023-08-24T15:11:23;29.40;57.40
22098;DHT22;11215;51.938;8.464;2023-08-24T15:13:49;29.30;57.70
22098;DHT22;11215;51.938;8.464;2023-08-24T15:16:15;29.20;57.70
22098;DHT22;11215;51.938;8.464;2023-08-24T15:18:40;29.10;57.90
22098;DHT22;11215;51.938;8.464;2023-08-24T15:21:06;29.00;57.90
22098;DHT22;11215;51.938;8.464;2023-08-24T15:23:32;29.00;58.70
22098;DHT22;11215;51.938;8.464;2023-08-24T15:25:59;28.90;59.20
22098;DHT22;11215;51.938;8.464;2023-08-24T15:28:26;28.90;59.70
22098;DHT22;11215;51.938;8.464;2023-08-24T15:30:52;28.80;59.70
22098;DHT22;11215;51.938;8.464;2023-08-24T15:33:19;28.80;60.30
22098;DHT22;11215;51.938;8.464;2023-08-24T15:35:46;28.70;59.90
22098;DHT22;11215;51.938;8.464;2023-08-24T15:38:12;28.70;60.20
22098;DHT22;11215;51.938;8.464;2023-08-24T15:40:38;28.70;60.60
22098;DHT22;11215;51.938;8.464;2023-08-24T15:43:05;28.70;60.50
22098;DHT22;11215;51.938;8.464;2023-08-24T15:45:31;28.60;60.20